createdAt,value
2022-08-16T00:00:22.816Z,0.05
2022-08-16T00:05:00.698Z,0.05
2022-08-16T00:09:52.822Z,0.04
2022-08-16T00:14:49.860Z,0.05
2022-08-16T00:19:46.796Z,0.05
2022-08-16T00:24:52.919Z,0.05
2022-08-16T00:29:47.772Z,0.05
2022-08-16T00:35:01.690Z,0.05
2022-08-16T00:39:45.017Z,0.04
2022-08-16T00:44:44.052Z,0.05
2022-08-16T00:49:58.377Z,0.05
2022-08-16T00:54:46.080Z,0.05
2022-08-16T00:59:18.628Z,0.04
2022-08-16T01:04:34.048Z,0.05
2022-08-16T01:14:31.491Z,0.05
2022-08-16T01:19:20.310Z,0.05
2022-08-16T01:24:57.098Z,0.05
2022-08-16T01:29:57.465Z,0.04
2022-08-16T01:34:28.473Z,0.05
2022-08-16T01:39:15.854Z,0.05
2022-08-16T01:44:20.970Z,0.05
2022-08-16T01:49:18.881Z,0.05
2022-08-16T01:54:31.589Z,0.05
2022-08-16T01:58:54.380Z,0.05
2022-08-16T02:04:10.106Z,0.05
2022-08-16T02:08:53.186Z,0.05
2022-08-16T02:13:57.275Z,0.05
2022-08-16T02:18:49.920Z,0.05
2022-08-16T02:23:57.078Z,0.05
2022-08-16T02:28:54.068Z,0.05
2022-08-16T02:33:52.851Z,0.05
2022-08-16T02:38:50.741Z,0.05
2022-08-16T02:43:47.122Z,0.05
2022-08-16T02:48:53.555Z,0.05
2022-08-16T02:53:46.271Z,0.05
2022-08-16T02:58:47.168Z,0.05
2022-08-16T03:04:56.374Z,0.05
2022-08-16T03:08:54.841Z,0.05
2022-08-16T03:13:48.172Z,0.05
2022-08-16T03:18:46.067Z,0.05
2022-08-16T03:23:40.551Z,0.05
2022-08-16T03:28:38.648Z,0.05
2022-08-16T03:33:37.631Z,0.05
2022-08-16T03:38:38.847Z,0.05
2022-08-16T03:43:55.369Z,0.05
2022-08-16T03:48:46.162Z,0.05
2022-08-16T03:53:40.562Z,0.05
2022-08-16T03:58:37.472Z,0.05
2022-08-16T04:03:34.424Z,0.06
2022-08-16T04:08:40.176Z,0.08
2022-08-16T04:14:36.304Z,0.09
2022-08-16T04:18:31.079Z,0.12
2022-08-16T04:23:30.277Z,0.2
2022-08-16T04:29:25.288Z,0.26
2022-08-16T04:33:29.518Z,0.29
2022-08-16T04:38:31.825Z,0.33
2022-08-16T04:43:31.462Z,0.39
2022-08-16T04:48:39.182Z,0.47
2022-08-16T04:53:28.365Z,0.48
2022-08-16T04:58:48.674Z,0.44
2022-08-16T04:59:45.355Z,0.48
2022-08-16T05:04:46.249Z,0.48
2022-08-16T05:09:51.986Z,0.5
2022-08-16T05:15:04.492Z,0.65
2022-08-16T05:20:00.713Z,0.76
2022-08-16T05:24:45.831Z,0.7
2022-08-16T05:30:38.856Z,0.78
2022-08-16T05:34:39.600Z,0.76
2022-08-16T05:39:45.524Z,1.17
2022-08-16T05:44:40.314Z,1.78
2022-08-16T05:49:42.350Z,2.16
2022-08-16T05:54:47.732Z,2.36
2022-08-16T05:59:15.399Z,2.52
2022-08-16T06:04:42.195Z,2.69
2022-08-16T06:09:20.115Z,2.84
2022-08-16T06:14:19.166Z,3.03
2022-08-16T06:19:18.157Z,3.31
2022-08-16T06:24:57.858Z,3.64
2022-08-16T06:29:19.224Z,3.95
2022-08-16T06:35:04.118Z,4.21
2022-08-16T06:39:15.998Z,4.46
2022-08-16T06:44:28.586Z,4.68
2022-08-16T06:49:11.580Z,4.9
2022-08-16T06:54:04.627Z,5.13
2022-08-16T06:58:53.858Z,5.32
2022-08-16T07:03:58.734Z,5.55
2022-08-16T07:08:52.710Z,5.79
2022-08-16T07:14:28.916Z,6.04
2022-08-16T07:19:05.203Z,6.33
2022-08-16T07:24:09.343Z,6.6
2022-08-16T07:28:49.403Z,6.96
2022-08-16T07:33:58.762Z,7.25
2022-08-16T07:38:50.574Z,8.48
2022-08-16T07:43:48.195Z,11.57
2022-08-16T07:48:50.143Z,12.29
2022-08-16T07:54:09.029Z,12.82
2022-08-16T07:58:57.803Z,13.38
2022-08-16T08:03:51.309Z,13.86
2022-08-16T08:09:00.117Z,14.36
2022-08-16T08:13:45.123Z,15.29
2022-08-16T08:19:03.176Z,9.33
2022-08-16T08:23:46.425Z,16.5
2022-08-16T08:28:42.283Z,16.84
2022-08-16T08:33:52.703Z,17.39
2022-08-16T08:38:47.851Z,17.21
2022-08-16T08:43:46.644Z,6.67
2022-08-16T08:49:02.303Z,12.71
2022-08-16T08:53:39.010Z,10.04
2022-08-16T08:58:36.959Z,19.52
2022-08-16T08:59:59.550Z,19.81
2022-08-16T09:04:59.957Z,19.14
2022-08-16T09:10:22.614Z,20.52
2022-08-16T09:14:57.269Z,21.73
2022-08-16T09:20:05.517Z,22.83
2022-08-16T09:25:15.283Z,23.71
2022-08-16T09:30:45.737Z,23.73
2022-08-16T09:34:58.805Z,23.97
2022-08-16T09:39:54.402Z,22.65
2022-08-16T09:45:22.771Z,8.95
2022-08-16T09:49:55.734Z,10.87
2022-08-16T09:54:52.837Z,25.69
2022-08-16T09:59:10.762Z,26.16
2022-08-16T10:04:35.788Z,27.83
2022-08-16T10:09:11.999Z,27.23
2022-08-16T10:14:00.445Z,27.73
2022-08-16T10:19:09.137Z,27.85
2022-08-16T10:23:57.945Z,28.01
2022-08-16T10:28:57.996Z,28.89
2022-08-16T10:33:55.839Z,30.04
2022-08-16T10:38:55.418Z,29.72
2022-08-16T10:43:56.773Z,28.26
2022-08-16T10:48:56.564Z,12.17
2022-08-16T10:53:57.884Z,12.7
2022-08-16T10:58:55.177Z,29.3
2022-08-16T11:04:01.951Z,29.08
2022-08-16T11:09:29.322Z,27.88
2022-08-16T11:14:17.462Z,28.98
2022-08-16T11:19:16.224Z,29.78
2022-08-16T11:24:01.813Z,29.71
2022-08-16T11:29:16.649Z,13.78
2022-08-16T11:33:57.152Z,22.42
2022-08-16T11:39:01.389Z,10.92
2022-08-16T11:43:47.144Z,29.23
2022-08-16T11:48:43.719Z,29.02
2022-08-16T11:53:43.044Z,29.07
2022-08-16T11:58:57.657Z,10
2022-08-16T12:03:44.719Z,29.13
2022-08-16T12:08:43.579Z,29.63
2022-08-16T12:13:41.602Z,29.52
2022-08-16T12:18:42.871Z,28.87
2022-08-16T12:23:40.570Z,27.86
2022-08-16T12:28:58.075Z,27.5
2022-08-16T12:33:46.778Z,28.73
2022-08-16T12:38:53.575Z,28.11
2022-08-16T12:43:45.718Z,27.55
2022-08-16T12:48:37.837Z,26.94
2022-08-16T12:53:40.459Z,26.91
2022-08-16T12:58:53.145Z,28.19
2022-08-16T12:59:59.544Z,27.24
2022-08-16T13:04:58.283Z,25.59
2022-08-16T13:09:56.640Z,26.26
2022-08-16T13:14:54.047Z,25.26
2022-08-16T13:20:12.999Z,24.93
2022-08-16T13:24:53.704Z,21.82
2022-08-16T13:29:59.617Z,10.96
2022-08-16T13:34:52.317Z,17.39
2022-08-16T13:39:52.704Z,16.51
2022-08-16T13:44:59.886Z,14.35
2022-08-16T13:49:49.935Z,12.34
2022-08-16T13:54:47.562Z,15.69
2022-08-16T13:59:22.723Z,14.99
2022-08-16T14:04:28.747Z,14.75
2022-08-16T14:09:22.374Z,19.99
2022-08-16T14:14:29.604Z,19.55
2022-08-16T14:19:16.351Z,19.22
2022-08-16T14:24:31.805Z,18.73
2022-08-16T14:29:13.736Z,18.09
2022-08-16T14:34:21.033Z,17.73
2022-08-16T14:39:18.742Z,17.12
2022-08-16T14:44:19.109Z,9.52
2022-08-16T14:49:20.087Z,15.86
2022-08-16T14:54:18.035Z,15.22
2022-08-16T14:58:57.705Z,14.67
2022-08-16T15:03:57.649Z,14.05
2022-08-16T15:08:58.026Z,13.37
2022-08-16T15:13:54.891Z,12.64
2022-08-16T15:18:52.376Z,12.06
2022-08-16T15:23:55.573Z,11.71
2022-08-16T15:28:53.884Z,11.32
2022-08-16T15:34:00.176Z,10.82
2022-08-16T15:39:40.349Z,10.29
2022-08-16T15:44:11.492Z,8.84
2022-08-16T15:48:53.108Z,6.55
2022-08-16T15:54:34.059Z,5.33
2022-08-16T15:58:57.101Z,5.36
2022-08-16T16:00:19.682Z,6.44
2022-08-16T16:05:15.269Z,7.24
2022-08-16T16:10:17.044Z,7.28
2022-08-16T16:15:14.553Z,4.5
2022-08-16T16:20:15.337Z,4.19
2022-08-16T16:25:07.994Z,4.18
2022-08-16T16:30:45.136Z,3.87
2022-08-16T16:35:03.505Z,3.73
2022-08-16T16:40:13.292Z,3.74
2022-08-16T16:45:05.105Z,3.88
2022-08-16T16:50:02.716Z,3.21
2022-08-16T16:55:00.310Z,2.97
2022-08-16T16:59:25.169Z,2.93
2022-08-16T17:04:33.049Z,2.73
2022-08-16T17:09:20.937Z,2.66
2022-08-16T17:14:42.590Z,2.34
2022-08-16T17:19:32.272Z,2.34
2022-08-16T17:24:44.849Z,2.11
2022-08-16T17:29:21.619Z,1.88
2022-08-16T17:39:31.807Z,1.66
2022-08-16T17:40:59.279Z,1.47
2022-08-16T17:44:15.518Z,1.29
2022-08-16T17:49:14.302Z,1.12
2022-08-16T17:54:33.217Z,0.97
2022-08-16T17:58:58.578Z,0.85
2022-08-16T18:04:50.338Z,0.72
2022-08-16T18:09:07.098Z,0.6
2022-08-16T18:14:00.099Z,0.5
2022-08-16T18:18:56.101Z,0.4
2022-08-16T18:23:55.055Z,0.32
2022-08-16T18:28:54.179Z,0.3
2022-08-16T18:33:57.469Z,0.24
2022-08-16T18:38:50.331Z,0.17
2022-08-16T18:44:35.693Z,0.12
2022-08-16T18:48:49.317Z,0.09
2022-08-16T18:53:48.982Z,0.07
2022-08-16T18:58:48.984Z,0.06
2022-08-16T19:00:18.544Z,0.06
2022-08-16T19:05:18.541Z,0.06
2022-08-16T19:10:15.618Z,0.05
2022-08-16T19:15:17.755Z,0.05
2022-08-16T19:20:14.838Z,0.05
2022-08-16T19:25:17.769Z,0.05
2022-08-16T19:30:14.359Z,0.05
2022-08-16T19:35:05.647Z,0.05
2022-08-16T19:40:37.326Z,0.05
2022-08-16T19:45:02.623Z,0.05
2022-08-16T19:50:01.465Z,0.05
2022-08-16T19:55:00.360Z,0.05
2022-08-16T19:59:41.708Z,0.05
2022-08-16T20:04:20.321Z,0.05
2022-08-16T20:09:20.953Z,0.05
2022-08-16T20:14:28.138Z,0.05
2022-08-16T20:19:19.262Z,0.05
2022-08-16T20:24:37.725Z,0.05
2022-08-16T20:29:17.011Z,0.05
2022-08-16T20:34:16.595Z,0.05
2022-08-16T20:39:15.653Z,0.05
2022-08-16T20:44:15.707Z,0.05
2022-08-16T20:49:14.722Z,0.05
2022-08-16T20:54:16.922Z,0.05
2022-08-16T20:59:03.577Z,0.05
2022-08-16T21:04:03.392Z,0.05
2022-08-16T21:09:01.509Z,0.05
2022-08-16T21:14:03.360Z,0.05
2022-08-16T21:18:58.965Z,0.05
2022-08-16T21:23:58.629Z,0.05
2022-08-16T21:28:57.868Z,0.05
2022-08-16T21:33:58.608Z,0.05
2022-08-16T21:39:18.665Z,0.05
2022-08-16T21:43:56.281Z,0.05
2022-08-16T21:48:56.476Z,0.05
2022-08-16T21:53:54.959Z,0.05
2022-08-16T21:58:56.045Z,0.05
2022-08-16T22:00:16.985Z,0.05
2022-08-16T22:05:16.463Z,0.05
2022-08-16T22:11:11.129Z,0.05
2022-08-16T22:15:15.414Z,0.05
2022-08-16T22:20:13.432Z,0.04
2022-08-16T22:25:19.751Z,0.05
2022-08-16T22:30:21.008Z,0.05
2022-08-16T22:35:19.627Z,0.05
2022-08-16T22:40:18.814Z,0.05
2022-08-16T22:45:18.043Z,0.05
2022-08-16T22:50:18.690Z,0.04
2022-08-16T22:55:15.508Z,0.05
2022-08-16T22:59:35.860Z,0.04
2022-08-16T23:04:36.047Z,0.05
2022-08-16T23:09:34.829Z,0.05
2022-08-16T23:14:34.587Z,0.05
2022-08-16T23:19:34.108Z,0.05
2022-08-16T23:24:58.321Z,0.05
2022-08-16T23:29:32.748Z,0.04
2022-08-16T23:34:31.368Z,0.05
2022-08-16T23:39:30.233Z,0.05
2022-08-16T23:45:01.358Z,0.05
2022-08-16T23:50:05.831Z,0.05
2022-08-16T23:54:27.548Z,0.05
2022-08-16T23:59:19.870Z,0.05
